Time;durP1;ratioP1;P1;durP2;ratioP2;P2;SDS_P1;SDS_P2;PMS_P1;PMS_P2;Temp;Humidity;BMP_temperature;BMP_pressure;BME280_temperature;BME280_humidity;BME280_pressure;Samples;Min_cycle;Max_cycle;Signal;HPM_P1;HPM_P2
2022/04/29 00:00:38;;;;;;;4.37;3.97;;;13.70;61.40;;;-142.21;100.00;112049.66;5052859;28;20494;-75
2022/04/29 00:03:09;;;;;;;4.83;3.80;;;13.60;61.20;;;-142.21;100.00;112049.66;5067599;28;20467;-75
2022/04/29 00:05:37;;;;;;;4.20;3.80;;;13.60;61.30;;;-142.21;100.00;112049.66;5052161;28;20443;-75
2022/04/29 00:08:06;;;;;;;4.33;3.70;;;13.60;61.50;;;-142.21;100.00;112049.66;5052697;28;20566;-76
2022/04/29 00:10:34;;;;;;;4.37;3.97;;;13.60;61.90;;;-142.21;100.00;112049.66;5051523;28;20960;-76
2022/04/29 00:13:04;;;;;;;4.80;3.60;;;13.50;61.60;;;-142.21;100.00;112049.66;5052552;28;20512;-77
2022/04/29 00:15:32;;;;;;;4.67;3.80;;;13.50;61.30;;;-142.21;100.00;112049.66;5051859;28;20448;-77
2022/04/29 00:17:59;;;;;;;4.00;3.60;;;13.50;61.40;;;-142.21;100.00;112049.66;5052378;28;20444;-76
2022/04/29 00:20:28;;;;;;;4.10;3.70;;;13.60;61.50;;;-142.21;100.00;112049.66;5066986;28;20932;-76
2022/04/29 00:22:55;;;;;;;4.33;3.50;;;13.60;61.50;;;-142.21;100.00;112049.66;5051934;28;20480;-76
2022/04/29 00:25:22;;;;;;;3.97;3.67;;;13.50;61.20;;;-142.21;100.00;112049.66;5049109;28;20452;-75
2022/04/29 00:27:49;;;;;;;4.10;3.70;;;13.40;61.70;;;-142.21;100.00;112049.66;5051955;28;20480;-76
2022/04/29 00:30:16;;;;;;;4.03;3.73;;;13.40;61.70;;;-142.21;100.00;112049.66;5051883;28;20500;-75
2022/04/29 00:32:44;;;;;;;4.20;3.80;;;13.30;62.10;;;-142.21;100.00;112049.66;5050242;28;20455;-76
2022/04/29 00:35:11;;;;;;;3.97;3.57;;;13.30;61.60;;;-142.21;100.00;112049.66;5050669;28;20966;-76
2022/04/29 00:37:48;;;;;;;4.60;4.20;;;13.40;61.60;;;-142.21;100.00;112049.66;5051419;28;20444;-76
2022/04/29 00:40:18;;;;;;;3.93;3.63;;;13.30;61.80;;;-142.21;100.00;112049.66;5052222;28;20428;-77
2022/04/29 00:42:46;;;;;;;4.50;3.73;;;13.20;63.30;;;-142.21;100.00;112049.66;5051292;28;20458;-75
2022/04/29 00:45:15;;;;;;;4.40;3.50;;;13.20;63.60;;;-142.21;100.00;112049.66;5052267;28;20455;-75
2022/04/29 00:47:44;;;;;;;6.03;4.10;;;13.20;62.80;;;-142.21;100.00;112049.66;5051697;28;20476;-75
2022/04/29 00:50:14;;;;;;;5.80;4.10;;;13.40;62.20;;;-142.21;100.00;112049.66;5050575;28;20997;-75
2022/04/29 00:52:44;;;;;;;5.27;3.90;;;13.30;62.90;;;-142.21;100.00;112049.66;5068367;28;20444;-76
2022/04/29 00:55:15;;;;;;;4.77;4.30;;;13.10;62.70;;;-142.21;100.00;112049.66;5052712;28;20471;-76
2022/04/29 00:57:48;;;;;;;4.97;3.80;;;13.30;62.00;;;-142.21;100.00;112049.66;5051512;28;20445;-75
2022/04/29 01:00:18;;;;;;;4.97;4.40;;;13.30;62.00;;;-142.21;100.00;112049.66;5033204;28;20446;-77
2022/04/29 01:02:49;;;;;;;5.33;4.30;;;13.20;61.90;;;-142.21;100.00;112049.66;5041467;28;20452;-76
2022/04/29 01:05:18;;;;;;;4.83;3.63;;;13.10;62.70;;;-142.21;100.00;112049.66;5051599;28;20808;-77
2022/04/29 01:07:47;;;;;;;4.10;3.80;;;13.20;62.10;;;-142.21;100.00;112049.66;5051255;28;20450;-76
2022/04/29 01:10:20;;;;;;;4.10;3.70;;;13.30;61.90;;;-142.21;100.00;112049.66;5051142;28;20479;-76
2022/04/29 01:12:51;;;;;;;4.57;4.10;;;13.30;62.40;;;-142.21;100.00;112049.66;5032630;28;20441;-76
2022/04/29 01:15:19;;;;;;;4.73;4.07;;;13.20;63.00;;;-142.21;100.00;112049.66;5051171;28;20440;-76
2022/04/29 01:17:56;;;;;;;4.10;3.70;;;13.10;63.30;;;-142.21;100.00;112049.66;5050872;28;20454;-76
2022/04/29 01:20:28;;;;;;;4.93;4.30;;;13.20;62.80;;;-142.21;100.00;112049.66;5051331;28;20952;-76
2022/04/29 01:22:57;;;;;;;4.67;4.07;;;13.20;62.50;;;-142.21;100.00;112049.66;5051779;28;20524;-76
2022/04/29 01:25:24;;;;;;;4.83;4.03;;;13.10;62.30;;;-142.21;100.00;112049.66;5051367;28;20459;-76
2022/04/29 01:27:52;;;;;;;4.37;3.97;;;13.10;63.60;;;-142.21;100.00;112049.66;5050004;28;20956;-77
2022/04/29 01:30:19;;;;;;;5.03;4.23;;;13.00;63.40;;;-142.21;100.00;112049.66;5050602;28;20487;-77
2022/04/29 01:32:46;;;;;;;6.33;4.27;;;13.00;64.20;;;-142.21;100.00;112049.66;5049535;28;20444;-77
2022/04/29 01:35:16;;;;;;;4.30;3.90;;;12.90;63.40;;;-142.21;100.00;112049.66;5051006;28;20490;-76
2022/04/29 01:37:44;;;;;;;5.17;4.23;;;12.90;63.80;;;-142.21;100.00;112049.66;5051388;28;20452;-76
2022/04/29 01:40:16;;;;;;;4.83;4.33;;;12.90;63.00;;;-142.21;100.00;112049.66;5016349;28;20488;-75
2022/04/29 01:42:44;;;;;;;5.10;4.20;;;13.00;62.80;;;-142.21;100.00;112049.66;5050340;28;20458;-76
2022/04/29 01:45:13;;;;;;;4.93;4.43;;;12.90;63.30;;;-142.21;100.00;112049.66;5043653;28;20453;-76
2022/04/29 01:47:40;;;;;;;4.90;4.50;;;12.80;63.50;;;-142.21;100.00;112049.66;5051071;28;20509;-75
2022/04/29 01:50:10;;;;;;;4.37;3.97;;;12.80;63.80;;;-142.21;100.00;112049.66;5016467;28;20471;-75
2022/04/29 01:52:37;;;;;;;5.03;4.53;;;12.70;64.70;;;-142.21;100.00;112049.66;5050935;28;20455;-76
2022/04/29 01:55:05;;;;;;;4.70;4.20;;;12.60;64.90;;;-142.21;100.00;112049.66;5066872;28;20463;-77
2022/04/29 01:57:35;;;;;;;4.60;4.10;;;12.70;64.40;;;-142.21;100.00;112049.66;5050178;28;20543;-76
2022/04/29 02:00:02;;;;;;;4.63;4.13;;;12.70;64.50;;;-142.21;100.00;112049.66;5051267;28;20488;-73
2022/04/29 02:02:29;;;;;;;5.00;4.40;;;12.80;64.20;;;-142.21;100.00;112049.66;5015423;28;20528;-76
2022/04/29 02:04:56;;;;;;;5.93;5.43;;;12.80;63.60;;;-142.21;100.00;112049.66;5051845;28;20539;-76
2022/04/29 02:07:23;;;;;;;5.03;4.50;;;12.70;64.00;;;-142.21;100.00;112049.66;5054981;28;20475;-76
2022/04/29 02:09:50;;;;;;;5.40;4.87;;;12.60;64.40;;;-142.21;100.00;112049.66;5055065;28;20476;-76
2022/04/29 02:12:18;;;;;;;4.73;4.20;;;12.60;64.00;;;-142.21;100.00;112049.66;5054776;28;20480;-75
2022/04/29 02:14:47;;;;;;;4.47;4.07;;;12.60;64.80;;;-142.21;100.00;112049.66;5069878;28;20456;-76
2022/04/29 02:17:15;;;;;;;5.47;4.30;;;12.50;64.10;;;-142.21;100.00;112049.66;5054574;28;20460;-76
2022/04/29 02:19:42;;;;;;;5.17;4.57;;;12.60;64.60;;;-142.21;100.00;112049.66;5054365;28;20494;-75
2022/04/29 02:22:10;;;;;;;4.67;4.27;;;12.50;63.40;;;-142.21;100.00;112049.66;5054831;28;20448;-75
2022/04/29 02:24:42;;;;;;;4.63;4.13;;;12.60;64.10;;;-142.21;100.00;112049.66;5054314;28;20885;-76
2022/04/29 02:27:09;;;;;;;4.50;3.60;;;12.50;64.30;;;-142.21;100.00;112049.66;5054317;28;20440;-77
2022/04/29 02:29:37;;;;;;;5.67;4.17;;;12.50;63.90;;;-142.21;100.00;112049.66;5054531;28;20479;-76
2022/04/29 02:32:07;;;;;;;7.57;4.30;;;12.50;64.00;;;-142.21;100.00;112049.66;5069694;28;20455;-77
2022/04/29 02:34:36;;;;;;;4.53;4.10;;;12.50;64.50;;;-142.21;100.00;112049.66;5054707;28;20456;-75
2022/04/29 02:37:04;;;;;;;4.63;4.23;;;12.50;64.40;;;-142.21;100.00;112049.66;5053858;28;20460;-76
2022/04/29 02:39:31;;;;;;;6.17;4.83;;;12.40;64.00;;;-142.21;100.00;112049.66;5054232;28;20483;-76
2022/04/29 02:41:58;;;;;;;5.20;4.10;;;12.40;64.40;;;-142.21;100.00;112049.66;5053630;28;20458;-76
2022/04/29 02:44:25;;;;;;;5.20;4.73;;;12.40;63.90;;;-142.21;100.00;112049.66;5054449;28;20789;-77
2022/04/29 02:49:48;;;;;;;5.27;4.83;;;12.40;64.60;;;-142.21;100.00;112049.66;5017701;28;20476;-75
2022/04/29 02:52:15;;;;;;;5.53;5.03;;;12.30;65.20;;;-142.21;100.00;112049.66;5069320;28;20452;-76
2022/04/29 02:54:43;;;;;;;5.33;4.67;;;12.30;64.50;;;-142.21;100.00;112049.66;5070028;28;20455;-76
2022/04/29 02:57:10;;;;;;;5.30;4.80;;;12.30;64.50;;;-142.21;100.00;112049.66;5075692;28;20444;-76
2022/04/29 02:59:37;;;;;;;5.30;4.80;;;12.30;65.20;;;-142.21;100.00;112049.66;5066572;28;20483;-76
2022/04/29 03:02:05;;;;;;;5.13;4.63;;;12.20;65.50;;;-142.21;100.00;112049.66;5052107;28;20547;-75
2022/04/29 03:04:33;;;;;;;5.83;5.17;;;12.20;65.10;;;-142.21;100.00;112049.66;5054031;28;20448;-77
2022/04/29 03:07:01;;;;;;;5.90;5.27;;;12.10;64.80;;;-142.21;100.00;112049.66;5053218;28;20984;-77
2022/04/29 03:09:31;;;;;;;5.70;5.10;;;12.10;64.70;;;-142.21;100.00;112049.66;5053935;28;20437;-77
2022/04/29 03:11:59;;;;;;;5.47;4.97;;;12.00;64.70;;;-142.21;100.00;112049.66;5054141;28;20595;-76
2022/04/29 03:14:26;;;;;;;5.73;5.07;;;12.00;65.40;;;-142.21;100.00;112049.66;5030771;28;20449;-76
2022/04/29 03:16:54;;;;;;;6.20;5.57;;;12.00;65.20;;;-142.21;100.00;112049.66;5047874;28;20548;-76
2022/04/29 03:19:21;;;;;;;6.60;5.63;;;12.00;65.00;;;-142.21;100.00;112049.66;5068590;28;20492;-76
2022/04/29 03:21:48;;;;;;;6.90;6.20;;;12.00;65.10;;;-142.21;100.00;112049.66;5053594;28;20805;-76
2022/04/29 03:24:17;;;;;;;6.27;5.63;;;11.90;65.60;;;-142.21;100.00;112049.66;5045807;28;20437;-76
2022/04/29 03:26:44;;;;;;;6.83;5.80;;;11.90;65.50;;;-142.21;100.00;112049.66;5034112;28;20532;-76
2022/04/29 03:29:11;;;;;;;7.80;6.23;;;11.90;65.30;;;-142.21;100.00;112049.66;5052828;28;20480;-76
2022/04/29 03:31:39;;;;;;;6.03;5.43;;;12.00;64.80;;;-142.21;100.00;112049.66;5053644;28;20448;-76
2022/04/29 03:34:06;;;;;;;6.90;5.73;;;12.00;64.50;;;-142.21;100.00;112049.66;5018075;28;20450;-75
2022/04/29 03:36:34;;;;;;;6.40;5.80;;;12.00;64.10;;;-142.21;100.00;112049.66;5052885;28;20448;-76
2022/04/29 03:39:02;;;;;;;6.37;5.67;;;12.00;64.70;;;-142.21;100.00;112049.66;5052774;28;21005;-75
2022/04/29 03:41:30;;;;;;;5.70;5.20;;;12.00;64.70;;;-142.21;100.00;112049.66;5052792;28;20463;-76
2022/04/29 03:43:57;;;;;;;5.90;5.23;;;12.00;64.20;;;-142.21;100.00;112049.66;5033988;28;20444;-76
2022/04/29 03:46:25;;;;;;;6.63;5.23;;;11.90;64.60;;;-142.21;100.00;112049.66;5052553;28;20519;-75
2022/04/29 03:51:37;;;;;;;6.50;5.87;;;11.80;65.90;;;-142.21;100.00;112049.66;5052367;28;20468;-75
2022/04/29 03:54:05;;;;;;;7.77;5.67;;;11.70;65.90;;;-142.21;100.00;112049.66;5052751;28;20436;-75
2022/04/29 03:56:34;;;;;;;6.27;5.67;;;11.80;66.00;;;-142.21;100.00;112049.66;5052339;28;20519;-76
2022/04/29 03:59:01;;;;;;;6.40;5.73;;;11.80;66.30;;;-142.21;100.00;112049.66;5001301;28;20543;-76
2022/04/29 04:01:29;;;;;;;6.80;6.10;;;11.90;65.10;;;-142.21;100.00;112049.66;5051073;28;20567;-76
2022/04/29 04:03:57;;;;;;;6.90;6.20;;;11.80;65.40;;;-142.21;100.00;112049.66;5052549;28;20456;-76
2022/04/29 04:09:12;;;;;;;6.17;5.33;;;11.70;66.60;;;-142.21;100.00;112049.66;5052955;28;20483;-76
2022/04/29 04:11:41;;;;;;;6.63;5.80;;;11.70;65.80;;;-142.21;100.00;112049.66;5051827;28;20454;-75
2022/04/29 04:14:08;;;;;;;7.33;5.60;;;11.60;66.10;;;-142.21;100.00;112049.66;5052874;28;20555;-75
2022/04/29 04:16:36;;;;;;;6.97;5.97;;;11.60;66.70;;;-142.21;100.00;112049.66;5052547;28;20449;-75
2022/04/29 04:19:04;;;;;;;6.57;5.87;;;11.60;66.50;;;-142.21;100.00;112049.66;5032130;28;20949;-77
2022/04/29 04:21:31;;;;;;;6.60;6.00;;;11.60;66.40;;;-142.21;100.00;112049.66;5063888;28;20994;-76
2022/04/29 04:23:58;;;;;;;6.43;5.83;;;11.60;68.20;;;-142.21;100.00;112049.66;5052120;28;20444;-76
2022/04/29 04:26:25;;;;;;;6.87;6.07;;;11.50;66.60;;;-142.21;100.00;112049.66;5052153;28;20450;-76
2022/04/29 04:28:54;;;;;;;7.37;6.10;;;11.60;67.10;;;-142.21;100.00;112049.66;5050007;28;20482;-75
2022/04/29 04:31:21;;;;;;;7.60;5.83;;;11.60;66.50;;;-142.21;100.00;112049.66;5052266;28;20531;-75
2022/04/29 04:33:48;;;;;;;6.67;5.90;;;11.70;66.40;;;-142.21;100.00;112049.66;5051570;28;20459;-77
2022/04/29 04:36:16;;;;;;;6.73;6.07;;;11.60;67.20;;;-142.21;100.00;112049.66;5052028;28;20507;-75
2022/04/29 04:38:45;;;;;;;7.57;6.43;;;11.60;67.10;;;-142.21;100.00;112049.66;5067273;28;20456;-76
2022/04/29 04:41:13;;;;;;;7.13;6.00;;;11.60;66.90;;;-142.21;100.00;112049.66;5051060;28;20567;-75
2022/04/29 04:43:40;;;;;;;7.77;6.10;;;11.60;67.80;;;-142.21;100.00;112049.66;5051372;28;20905;-76
2022/04/29 04:46:09;;;;;;;6.77;6.07;;;11.50;67.40;;;-142.21;100.00;112049.66;5051781;28;20804;-76
2022/04/29 04:48:36;;;;;;;6.80;6.10;;;11.60;67.50;;;-142.21;100.00;112049.66;5052224;28;20456;-75
2022/04/29 04:51:05;;;;;;;6.73;6.10;;;11.60;67.40;;;-142.21;100.00;112049.66;5050800;28;20999;-77
2022/04/29 04:53:32;;;;;;;6.63;6.00;;;11.60;67.20;;;-142.21;100.00;112049.66;5047640;28;20438;-76
2022/04/29 04:56:00;;;;;;;7.73;5.83;;;11.60;67.60;;;-142.21;100.00;112049.66;5032058;28;20467;-75
2022/04/29 04:58:27;;;;;;;7.73;6.30;;;11.70;67.60;;;-142.21;100.00;112049.66;5049066;28;20440;-76
2022/04/29 05:00:54;;;;;;;7.20;6.17;;;11.70;67.50;;;-142.21;100.00;112049.66;5051709;28;20492;-76
2022/04/29 05:03:25;;;;;;;6.73;5.97;;;11.60;67.10;;;-142.21;100.00;112049.66;5051655;28;20458;-75
2022/04/29 05:05:52;;;;;;;7.03;6.33;;;11.80;68.30;;;-142.21;100.00;112049.66;5051456;28;20436;-75
2022/04/29 05:08:19;;;;;;;7.37;6.67;;;11.90;67.70;;;-142.21;100.00;112049.66;5051505;28;20503;-77
2022/04/29 05:10:48;;;;;;;6.23;5.57;;;12.00;67.60;;;-142.21;100.00;112049.66;5051385;28;20495;-74
2022/04/29 05:13:16;;;;;;;6.83;6.17;;;12.10;66.80;;;-142.21;100.00;112049.66;5051455;28;20814;-75
2022/04/29 05:15:43;;;;;;;6.47;5.87;;;12.20;67.30;;;-142.21;100.00;112049.66;5050439;28;20472;-75
2022/04/29 05:18:10;;;;;;;7.80;6.70;;;12.30;67.00;;;-142.21;100.00;112049.66;5052020;28;20841;-75
2022/04/29 05:20:39;;;;;;;7.13;6.40;;;12.40;68.10;;;-142.21;100.00;112049.66;5050640;28;20578;-74
2022/04/29 05:23:06;;;;;;;7.70;6.63;;;12.50;66.50;;;-142.21;100.00;112049.66;5051827;28;20439;-75
2022/04/29 05:25:35;;;;;;;7.37;6.67;;;12.60;66.30;;;-142.21;100.00;112049.66;5050365;28;20491;-76
2022/04/29 05:28:02;;;;;;;7.33;6.53;;;12.70;67.50;;;-142.21;100.00;112049.66;5051774;28;20882;-76
2022/04/29 05:30:31;;;;;;;10.93;6.73;;;12.70;67.10;;;-142.21;100.00;112049.66;5051181;28;20445;-76
2022/04/29 05:32:59;;;;;;;7.37;6.17;;;12.80;66.20;;;-142.21;100.00;112049.66;5051775;28;20454;-76
2022/04/29 05:35:27;;;;;;;6.90;6.30;;;12.80;66.30;;;-142.21;100.00;112049.66;5050823;28;20518;-75
2022/04/29 05:37:56;;;;;;;7.20;6.37;;;12.90;65.90;;;-142.21;100.00;112049.66;5051279;28;20454;-75
2022/04/29 05:43:08;;;;;;;7.00;6.30;;;13.10;66.00;;;-142.21;100.00;112049.66;5055590;28;20786;-75
2022/04/29 05:45:35;;;;;;;7.50;6.70;;;13.20;66.90;;;-142.21;100.00;112049.66;5054751;28;20455;-76
2022/04/29 05:48:03;;;;;;;7.27;6.53;;;13.40;67.00;;;-142.21;100.00;112049.66;5055614;28;20787;-75
2022/04/29 05:50:30;;;;;;;7.10;6.40;;;13.50;66.80;;;-142.21;100.00;112049.66;5055079;28;20468;-75
2022/04/29 05:52:58;;;;;;;7.10;6.40;;;13.60;66.40;;;-142.21;100.00;112049.66;5053751;28;20536;-76
2022/04/29 05:55:27;;;;;;;7.30;6.60;;;13.70;65.70;;;-142.21;100.00;112049.66;5054890;28;20447;-76
2022/04/29 05:57:54;;;;;;;7.47;6.67;;;14.00;66.00;;;-142.21;100.00;112049.66;5054918;28;20539;-76
2022/04/29 06:00:22;;;;;;;7.00;6.40;;;14.10;65.00;;;-142.21;100.00;112049.66;5055065;28;20483;-74
2022/04/29 06:02:49;;;;;;;6.40;5.70;;;14.20;65.80;;;-142.21;100.00;112049.66;5054502;28;20563;-75
2022/04/29 06:05:16;;;;;;;7.10;6.40;;;14.30;65.00;;;-142.21;100.00;112049.66;5053979;28;20534;-76
2022/04/29 06:07:45;;;;;;;6.90;6.20;;;14.40;65.70;;;-142.21;100.00;112049.66;5054535;28;20527;-76
2022/04/29 06:10:14;;;;;;;7.53;6.83;;;14.40;64.60;;;-142.21;100.00;112049.66;5054414;28;20436;-75
2022/04/29 06:12:43;;;;;;;7.30;6.60;;;14.40;65.10;;;-142.21;100.00;112049.66;5054904;28;20450;-77
2022/04/29 06:15:16;;;;;;;6.90;6.30;;;14.50;65.00;;;-142.21;100.00;112049.66;5053968;28;20454;-76
2022/04/29 06:17:44;;;;;;;7.13;6.07;;;14.50;64.80;;;-142.21;100.00;112049.66;5054484;28;20502;-74
2022/04/29 06:20:12;;;;;;;8.37;6.30;;;14.50;63.60;;;-142.21;100.00;112049.66;5053600;28;20515;-75
2022/04/29 06:22:44;;;;;;;7.17;6.47;;;14.50;63.30;;;-142.21;100.00;112049.66;5034282;28;20853;-76
2022/04/29 06:25:13;;;;;;;7.50;6.67;;;14.70;65.20;;;-142.21;100.00;112049.66;5049450;28;20547;-75
2022/04/29 06:27:42;;;;;;;8.17;6.83;;;14.70;65.00;;;-142.21;100.00;112049.66;5054552;28;20854;-75
2022/04/29 06:30:11;;;;;;;6.90;6.20;;;14.80;64.40;;;-142.21;100.00;112049.66;5053149;28;20984;-74
2022/04/29 06:32:38;;;;;;;6.87;6.17;;;14.90;64.50;;;-142.21;100.00;112049.66;5053733;28;20531;-75
2022/04/29 06:35:07;;;;;;;7.50;5.90;;;14.90;64.00;;;-142.21;100.00;112049.66;5053719;28;20491;-76
2022/04/29 06:37:34;;;;;;;6.80;6.20;;;15.00;64.30;;;-142.21;100.00;112049.66;5053474;28;20535;-74
2022/04/29 06:40:02;;;;;;;6.53;5.70;;;15.10;64.20;;;-142.21;100.00;112049.66;5054009;28;20527;-76
2022/04/29 06:42:31;;;;;;;7.30;6.60;;;15.20;65.20;;;-142.21;100.00;112049.66;5054662;28;20515;-77
2022/04/29 06:45:00;;;;;;;6.63;6.03;;;15.40;64.20;;;-142.21;100.00;112049.66;5054125;28;20451;-76
2022/04/29 06:47:27;;;;;;;7.63;5.90;;;15.60;64.30;;;-142.21;100.00;112049.66;5053120;28;20444;-75
2022/04/29 06:49:55;;;;;;;7.00;6.17;;;15.90;61.70;;;-142.21;100.00;112049.66;5054270;28;20475;-75
2022/04/29 06:52:22;;;;;;;6.77;6.07;;;16.10;61.00;;;-142.21;100.00;112049.66;5052399;28;20483;-75
2022/04/29 06:54:49;;;;;;;5.50;5.00;;;16.50;59.90;;;-142.21;100.00;112049.66;5054069;28;20484;-74
2022/04/29 06:57:16;;;;;;;8.70;6.57;;;16.90;59.10;;;-142.21;100.00;112049.66;5053125;28;20928;-76
2022/04/29 06:59:45;;;;;;;7.07;6.13;;;17.10;58.50;;;-142.21;100.00;112049.66;5053946;28;20533;-75
2022/04/29 07:02:12;;;;;;;7.13;6.43;;;17.50;57.90;;;-142.21;100.00;112049.66;5051662;28;20571;-75
2022/04/29 07:04:39;;;;;;;7.13;5.93;;;17.60;57.30;;;-142.21;100.00;112049.66;5053928;28;20521;-74
2022/04/29 07:07:07;;;;;;;7.03;6.33;;;18.30;56.30;;;-142.21;100.00;112049.66;5053416;28;20448;-74
2022/04/29 07:09:34;;;;;;;7.40;6.40;;;18.20;55.90;;;-142.21;100.00;112049.66;5053208;28;20489;-75
2022/04/29 07:12:01;;;;;;;5.83;5.33;;;18.20;55.50;;;-142.21;100.00;112049.66;5053553;28;20448;-75
2022/04/29 07:14:29;;;;;;;6.30;5.70;;;20.90;52.80;;;-142.21;100.00;112049.66;5052923;28;20452;-76
2022/04/29 07:16:57;;;;;;;7.80;7.00;;;22.20;49.60;;;-142.21;100.00;112049.66;5053134;28;21009;-75
2022/04/29 07:19:25;;;;;;;6.73;6.00;;;21.30;50.60;;;-142.21;100.00;112049.66;5052597;28;20455;-75
2022/04/29 07:21:52;;;;;;;8.27;6.37;;;20.90;50.40;;;-142.21;100.00;112049.66;5036193;28;20535;-76
2022/04/29 07:24:19;;;;;;;6.50;5.90;;;20.00;52.60;;;-142.21;100.00;112049.66;5041335;28;20547;-75
2022/04/29 07:26:46;;;;;;;6.73;6.10;;;19.30;53.60;;;-142.21;99.63;112049.66;5052607;28;20453;-75
2022/04/29 07:29:14;;;;;;;7.60;6.00;;;18.70;53.30;;;-142.21;98.98;112049.66;5053166;28;20502;-75
2022/04/29 07:31:42;;;;;;;7.07;5.67;;;18.80;53.90;;;-142.21;100.00;112049.66;5052925;28;20539;-75
2022/04/29 07:34:11;;;;;;;6.03;5.37;;;19.20;54.00;;;-142.21;99.50;112049.66;5053202;28;20502;-74
2022/04/29 07:42:08;;;;;;;6.47;5.83;;;19.70;53.80;;;-142.21;99.02;112049.66;5053085;28;20513;-75
2022/04/29 07:44:35;;;;;;;6.57;5.87;;;19.60;53.40;;;-142.21;92.64;112049.66;5052308;28;20448;-74
2022/04/29 07:47:03;;;;;;;6.23;5.67;;;19.60;51.70;;;-142.21;97.13;112049.66;5052326;28;20447;-76
2022/04/29 07:49:32;;;;;;;6.30;5.10;;;19.50;54.20;;;-142.21;96.96;112049.66;5051561;28;21001;-76
2022/04/29 07:52:04;;;;;;;6.20;5.37;;;19.30;54.10;;;-142.21;94.54;112049.66;5052320;28;20440;-75
2022/04/29 07:54:31;;;;;;;6.33;5.63;;;19.30;53.90;;;-142.21;96.02;112049.66;5054030;28;20447;-75
2022/04/29 07:56:58;;;;;;;5.87;5.30;;;19.30;54.40;;;-142.21;91.47;112049.66;5052194;28;20475;-76
2022/04/29 07:59:25;;;;;;;8.57;6.00;;;19.50;53.20;;;-142.21;90.69;112049.66;5052461;28;20494;-75
2022/04/29 08:01:54;;;;;;;7.03;6.30;;;19.50;53.30;;;-142.21;93.46;112049.66;5033230;28;20563;-75
2022/04/29 08:04:21;;;;;;;5.70;5.03;;;19.80;54.70;;;-142.21;85.90;112049.66;5051984;28;20471;-75
2022/04/29 08:06:50;;;;;;;5.87;5.37;;;19.90;52.30;;;-142.21;78.93;112049.66;5052759;28;20852;-75
2022/04/29 08:09:17;;;;;;;6.07;4.80;;;19.70;51.10;;;-142.21;83.38;112049.66;5052382;28;20536;-74
2022/04/29 08:11:45;;;;;;;5.93;5.00;;;20.10;52.30;;;-142.21;81.00;112049.66;5052753;28;20472;-75
2022/04/29 08:14:12;;;;;;;5.90;5.23;;;20.20;52.10;;;-142.21;77.32;112049.66;5050982;28;20498;-75
2022/04/29 08:16:40;;;;;;;7.90;5.20;;;20.40;51.50;;;-142.21;63.68;112049.66;5052577;28;20535;-75
2022/04/29 08:19:08;;;;;;;5.97;5.37;;;20.40;48.00;;;-142.21;68.52;112049.66;5051535;28;20448;-75
2022/04/29 08:21:36;;;;;;;5.43;4.93;;;20.40;50.00;;;-142.21;65.72;112049.66;5052886;28;20492;-75
2022/04/29 08:24:05;;;;;;;5.73;4.97;;;20.40;48.20;;;-142.21;73.13;112049.66;5051573;28;20496;-75
2022/04/29 08:26:32;;;;;;;8.00;5.70;;;20.50;51.20;;;-142.21;72.45;112049.66;5052243;28;20296;-75
2022/04/29 08:29:00;;;;;;;5.30;4.80;;;20.80;51.00;;;-142.21;66.30;112049.66;5051591;28;20484;-75
2022/04/29 08:31:28;;;;;;;6.20;5.53;;;21.00;49.90;;;-142.21;73.50;112049.66;5051721;28;20736;-75
2022/04/29 08:33:56;;;;;;;5.47;4.97;;;21.20;50.90;;;-142.21;71.26;112049.66;5051471;28;20304;-75
2022/04/29 08:36:23;;;;;;;5.40;4.90;;;21.20;49.80;;;-142.21;69.81;112049.66;5051548;28;20689;-75
2022/04/29 08:38:51;;;;;;;5.67;4.70;;;21.20;50.00;;;-142.21;74.07;112049.66;5052056;28;20251;-73
2022/04/29 08:41:21;;;;;;;6.00;5.40;;;21.20;50.50;;;-142.21;78.81;112049.66;5051722;28;20222;-74
2022/04/29 08:43:50;;;;;;;5.37;4.90;;;21.10;51.20;;;-142.21;76.57;112049.66;5051881;28;20548;-75
2022/04/29 08:46:22;;;;;;;6.00;5.50;;;21.00;51.00;;;-142.21;78.25;112049.66;5051308;28;20682;-74
2022/04/29 08:48:52;;;;;;;5.83;5.23;;;20.90;51.00;;;-142.21;81.17;112049.66;5051508;28;20495;-75
2022/04/29 08:51:20;;;;;;;5.70;5.10;;;20.90;52.10;;;-142.21;74.29;112049.66;5050280;28;20193;-73
2022/04/29 08:53:49;;;;;;;5.13;4.63;;;20.80;50.80;;;-142.21;76.35;112049.66;5040426;28;20241;-75
2022/04/29 08:59:06;;;;;;;6.07;4.43;;;21.30;52.00;;;-142.21;71.70;112049.66;5051170;28;20240;-73
2022/04/29 09:01:33;;;;;;;5.20;4.57;;;22.20;50.90;;;-142.21;64.62;112049.66;5050147;28;20207;-73
2022/04/29 09:04:01;;;;;;;4.97;4.50;;;23.40;48.70;;;-142.21;59.65;112049.66;5048462;28;20764;-75
2022/04/29 09:06:28;;;;;;;5.00;4.60;;;24.00;47.90;;;-142.21;55.89;112049.66;5051718;28;20212;-77
2022/04/29 09:09:09;;;;;;;5.40;4.90;;;24.50;46.20;;;-142.21;55.14;112049.66;5047535;28;20206;-76
2022/04/29 09:11:36;;;;;;;5.53;5.00;;;25.00;44.50;;;-142.21;56.44;112049.66;5049825;28;20224;-79
2022/04/29 09:14:23;;;;;;;6.23;4.40;;;25.50;45.00;;;-142.21;58.99;112049.66;5050867;28;20280;-74
2022/04/29 09:16:51;;;;;;;4.43;4.03;;;26.00;43.60;;;-142.21;62.54;112049.66;5050176;28;20585;-77
2022/04/29 09:19:32;;;;;;;5.50;5.00;;;26.20;44.30;;;-142.21;52.60;112049.66;5050922;28;20206;-75
2022/04/29 09:22:08;;;;;;;5.57;5.07;;;25.90;41.90;;;-142.21;54.98;112049.66;5050877;28;20678;-75
2022/04/29 09:24:35;;;;;;;6.53;4.60;;;25.70;43.20;;;-142.21;49.96;112049.66;5050904;28;20263;-77
2022/04/29 09:27:05;;;;;;;5.67;4.47;;;25.50;42.50;;;-142.21;46.18;112049.66;5051055;28;20208;-76
2022/04/29 09:29:42;;;;;;;6.93;5.03;;;25.30;41.40;;;-142.21;46.70;112049.66;5051367;28;20232;-77
2022/04/29 09:32:11;;;;;;;5.60;5.10;;;24.90;41.70;;;-142.21;51.63;112049.66;5051781;28;20185;-77
2022/04/29 09:34:46;;;;;;;5.57;5.07;;;24.90;44.20;;;-142.21;46.23;112049.66;5050424;28;20213;-77
2022/04/29 09:37:20;;;;;;;5.70;5.10;;;24.80;42.00;;;-142.21;42.93;112049.66;5051925;28;20217;-76
2022/04/29 09:39:53;;;;;;;5.53;4.50;;;24.70;41.20;;;-142.21;45.63;112049.66;5039653;28;20201;-76
2022/04/29 09:42:21;;;;;;;5.60;5.10;;;24.60;41.30;;;-142.21;43.90;112049.66;5051872;28;20296;-75
2022/04/29 09:44:50;;;;;;;6.30;5.00;;;24.30;41.90;;;-142.21;41.90;112049.66;5050227;28;20203;-77
2022/04/29 09:47:20;;;;;;;6.27;5.20;;;24.00;40.90;;;-142.21;42.58;112049.66;5051561;28;20329;-76
2022/04/29 09:49:55;;;;;;;6.93;4.83;;;23.80;41.30;;;-142.21;43.45;112049.66;5051150;28;20689;-77
2022/04/29 09:52:24;;;;;;;5.73;4.67;;;23.50;41.60;;;-142.21;48.02;112049.66;5050499;28;20181;-77
2022/04/29 09:54:56;;;;;;;5.53;4.73;;;23.60;43.50;;;-142.21;46.82;112049.66;5050001;28;20200;-78
2022/04/29 09:57:24;;;;;;;5.40;4.90;;;23.50;43.20;;;-142.21;44.22;112049.66;5047600;28;20209;-77
2022/04/29 09:59:55;;;;;;;4.80;4.40;;;23.30;41.60;;;-142.21;44.36;112049.66;5051277;28;20223;-77
2022/04/29 10:02:25;;;;;;;4.33;3.93;;;23.40;42.10;;;-142.21;45.63;112049.66;5049739;28;20237;-77
2022/04/29 10:04:55;;;;;;;5.53;4.80;;;23.50;43.60;;;-142.21;49.59;112049.66;5051624;28;20190;-76
2022/04/29 10:07:25;;;;;;;6.40;4.70;;;23.70;44.90;;;-142.21;47.81;112049.66;5051199;28;20671;-76
2022/04/29 10:09:54;;;;;;;6.27;4.43;;;23.70;43.90;;;-142.21;43.94;112049.66;5051206;28;20694;-77
2022/04/29 10:12:24;;;;;;;5.13;4.20;;;23.60;42.90;;;-142.21;45.27;112049.66;5050326;28;20234;-77
2022/04/29 10:14:57;;;;;;;5.10;4.60;;;23.60;43.30;;;-142.21;45.40;112049.66;5051212;28;20606;-75
2022/04/29 10:23:36;;;;;;;;;;;;;;;;;;;;;
2022/04/29 10:26:04;;;;;;;4.53;4.03;;;23.90;42.30;;;-142.21;43.17;112049.66;5003429;28;20543;-78
2022/04/29 10:28:33;;;;;;;4.53;4.13;;;24.10;42.80;;;-142.21;41.32;112049.66;5034752;28;20226;-76